createdAt,value
2017-01-25T00:00:06.561Z,73272
2017-01-25T00:00:15.216Z,73268
2017-01-25T00:00:23.900Z,73267
2017-01-25T00:00:32.578Z,73274
2017-01-25T00:00:41.250Z,73278
2017-01-25T00:00:49.924Z,73276
2017-01-25T00:00:58.594Z,73277
2017-01-25T00:01:07.277Z,73274
2017-01-25T00:01:15.946Z,73274
2017-01-25T00:01:24.626Z,73274
2017-01-25T00:01:33.302Z,73276
2017-01-25T00:01:41.984Z,73277
2017-01-25T00:01:50.647Z,73276
2017-01-25T00:01:59.309Z,73276
2017-01-25T00:02:07.987Z,73280
2017-01-25T00:02:16.660Z,73276
2017-01-25T00:02:25.339Z,73278
2017-01-25T00:02:34.003Z,73277
2017-01-25T00:02:42.674Z,73271
2017-01-25T00:02:51.345Z,73275
2017-01-25T00:03:00.012Z,73276
2017-01-25T00:03:08.680Z,73272
2017-01-25T00:03:17.356Z,73281
2017-01-25T00:03:26.017Z,73273
2017-01-25T00:03:34.687Z,73277
2017-01-25T00:03:43.362Z,73277
2017-01-25T00:03:52.043Z,73275
2017-01-25T00:04:01.078Z,73275
2017-01-25T00:04:09.746Z,73274
2017-01-25T00:04:18.412Z,73277
2017-01-25T00:04:27.116Z,73273
2017-01-25T00:04:35.778Z,73274
2017-01-25T00:04:44.431Z,73275
2017-01-25T00:04:53.097Z,73278
2017-01-25T00:05:01.773Z,73276
2017-01-25T00:05:10.431Z,73279
2017-01-25T00:05:19.090Z,73275
2017-01-25T00:05:27.768Z,73276
2017-01-25T00:05:36.443Z,73276
2017-01-25T00:05:45.097Z,73281
2017-01-25T00:05:53.780Z,73277
2017-01-25T00:06:02.446Z,73274
2017-01-25T00:06:11.130Z,73282
2017-01-25T00:06:19.786Z,73274
2017-01-25T00:06:28.455Z,73275
2017-01-25T00:06:37.128Z,73280
2017-01-25T00:06:45.786Z,73282
2017-01-25T00:06:54.457Z,73279
2017-01-25T00:07:03.149Z,73283
2017-01-25T00:07:11.808Z,73279
2017-01-25T00:07:20.463Z,73280
2017-01-25T00:07:29.147Z,73281
2017-01-25T00:07:37.832Z,73279
2017-01-25T00:07:46.520Z,73280
2017-01-25T00:07:55.201Z,73275
2017-01-25T00:08:03.868Z,73273
2017-01-25T00:08:12.526Z,73280
2017-01-25T00:08:21.188Z,73281
2017-01-25T00:08:29.856Z,73278
2017-01-25T00:08:38.530Z,73282
2017-01-25T00:08:47.195Z,73280
2017-01-25T00:08:55.870Z,73276
2017-01-25T00:09:04.550Z,73283
2017-01-25T00:09:13.236Z,73281
2017-01-25T00:09:21.898Z,73272
2017-01-25T00:09:30.562Z,73266
2017-01-25T00:09:39.230Z,73270
2017-01-25T00:09:47.912Z,73274
2017-01-25T00:09:56.595Z,73278
2017-01-25T00:10:05.311Z,73273
2017-01-25T00:10:13.991Z,73273
2017-01-25T00:10:22.658Z,73275
2017-01-25T00:10:31.318Z,73277
2017-01-25T00:10:39.987Z,73278
2017-01-25T00:10:48.661Z,73272
2017-01-25T00:10:57.360Z,73274
2017-01-25T00:11:06.024Z,73276
2017-01-25T00:11:14.670Z,73276
2017-01-25T00:11:23.337Z,73280
2017-01-25T00:11:31.995Z,73276
2017-01-25T00:11:40.664Z,73275
2017-01-25T00:11:49.349Z,73278
2017-01-25T00:11:58.032Z,73283
2017-01-25T00:12:06.697Z,73280
2017-01-25T00:12:15.347Z,73279
2017-01-25T00:12:24.068Z,73280
2017-01-25T00:12:32.719Z,73280
2017-01-25T00:12:41.385Z,73283
2017-01-25T00:12:50.055Z,73281
2017-01-25T00:12:58.752Z,73281
2017-01-25T00:13:07.440Z,73277
2017-01-25T00:13:16.120Z,73281
2017-01-25T00:13:24.803Z,73279
2017-01-25T00:13:33.475Z,73278
2017-01-25T00:13:42.168Z,73281
2017-01-25T00:13:50.844Z,73282
2017-01-25T00:13:59.513Z,73284
2017-01-25T00:14:08.189Z,73281
2017-01-25T00:14:16.874Z,73277
2017-01-25T00:14:25.531Z,73281
2017-01-25T00:14:34.210Z,73279
2017-01-25T00:14:42.879Z,73278
2017-01-25T00:14:51.544Z,73275
2017-01-25T00:15:00.201Z,73277
2017-01-25T00:15:08.866Z,73274
2017-01-25T00:15:17.529Z,73272
2017-01-25T00:15:26.193Z,73275
2017-01-25T00:15:34.865Z,73272
2017-01-25T00:15:43.520Z,73270
2017-01-25T00:15:52.190Z,73280
2017-01-25T00:16:00.877Z,73277
2017-01-25T00:16:09.944Z,73275
2017-01-25T00:16:18.608Z,73281
2017-01-25T00:16:27.264Z,73280
2017-01-25T00:16:35.950Z,73277
2017-01-25T00:16:44.621Z,73276
2017-01-25T00:16:53.650Z,73274
2017-01-25T00:17:02.324Z,73278
2017-01-25T00:17:11.022Z,73276
2017-01-25T00:17:19.703Z,73278
2017-01-25T00:17:28.391Z,73276
2017-01-25T00:17:37.054Z,73277
2017-01-25T00:17:45.719Z,73277
2017-01-25T00:17:54.393Z,73278
2017-01-25T00:18:03.063Z,73266
2017-01-25T00:18:11.747Z,73276
2017-01-25T00:18:20.409Z,73272
2017-01-25T00:18:29.085Z,73264
2017-01-25T00:18:37.805Z,73269
2017-01-25T00:18:46.490Z,73267
2017-01-25T00:18:55.156Z,73261
2017-01-25T00:19:04.208Z,73256
2017-01-25T00:19:12.879Z,73265
2017-01-25T00:19:21.549Z,73263
2017-01-25T00:19:30.594Z,73263
2017-01-25T00:19:39.254Z,73273
2017-01-25T00:19:47.939Z,73269
2017-01-25T00:19:56.639Z,73276
2017-01-25T00:20:05.309Z,73275
2017-01-25T00:20:13.970Z,73268
2017-01-25T00:20:22.653Z,73272
2017-01-25T00:20:31.329Z,73269
2017-01-25T00:20:39.987Z,73268
2017-01-25T00:20:48.666Z,73267
2017-01-25T00:20:57.334Z,73268
2017-01-25T00:21:06.002Z,73266
2017-01-25T00:21:14.646Z,73266
2017-01-25T00:21:23.312Z,73268
2017-01-25T00:21:31.982Z,73257
2017-01-25T00:21:40.654Z,73268
2017-01-25T00:21:49.326Z,73269
2017-01-25T00:21:58.006Z,73268
2017-01-25T00:22:06.716Z,73268
2017-01-25T00:22:15.415Z,73269
2017-01-25T00:22:24.074Z,73271
2017-01-25T00:22:32.739Z,73269
2017-01-25T00:22:41.406Z,73271
2017-01-25T00:22:50.062Z,73265
2017-01-25T00:22:58.729Z,73260
2017-01-25T00:23:07.406Z,73265
2017-01-25T00:23:16.065Z,73261
2017-01-25T00:23:24.752Z,73266
2017-01-25T00:23:33.408Z,73265
2017-01-25T00:23:42.085Z,73262
2017-01-25T00:23:50.787Z,73267
2017-01-25T00:23:59.457Z,73264
2017-01-25T00:24:08.117Z,73263
2017-01-25T00:24:16.779Z,73265
2017-01-25T00:24:25.461Z,73263
2017-01-25T00:24:34.121Z,73261
2017-01-25T00:24:42.810Z,73265
2017-01-25T00:24:51.471Z,73265
2017-01-25T00:25:00.149Z,73264
2017-01-25T00:25:08.836Z,73268
2017-01-25T00:25:17.513Z,73271
2017-01-25T00:25:26.169Z,73270
2017-01-25T00:25:34.879Z,73270
2017-01-25T00:25:43.536Z,73274
2017-01-25T00:25:52.206Z,73267
2017-01-25T00:26:00.873Z,73272
2017-01-25T00:26:09.570Z,73262
2017-01-25T00:26:18.261Z,73267
2017-01-25T00:26:26.952Z,73266
2017-01-25T00:26:35.634Z,73270
2017-01-25T00:26:44.296Z,73273
2017-01-25T00:26:52.956Z,73265
2017-01-25T00:27:01.625Z,73269
2017-01-25T00:27:10.286Z,73271
2017-01-25T00:27:18.945Z,73269
2017-01-25T00:27:27.600Z,73271
2017-01-25T00:27:36.262Z,73269
2017-01-25T00:27:44.950Z,73269
2017-01-25T00:27:53.622Z,73268
2017-01-25T00:28:02.288Z,73271
2017-01-25T00:28:10.956Z,73271
2017-01-25T00:28:19.635Z,73273
2017-01-25T00:28:28.318Z,73268
2017-01-25T00:28:36.994Z,73271
2017-01-25T00:28:45.666Z,73267
2017-01-25T00:28:54.333Z,73271
2017-01-25T00:29:03.021Z,73268
2017-01-25T00:29:11.695Z,73271
2017-01-25T00:29:20.350Z,73269
2017-01-25T00:29:29.014Z,73264
2017-01-25T00:29:37.698Z,73261
2017-01-25T00:29:46.368Z,73271
2017-01-25T00:29:55.043Z,73268
2017-01-25T00:30:03.742Z,73269
2017-01-25T00:30:12.418Z,73268
2017-01-25T00:30:21.083Z,73265
2017-01-25T00:30:29.759Z,73268
2017-01-25T00:30:38.430Z,73267
2017-01-25T00:30:47.116Z,73270
2017-01-25T00:30:55.771Z,73262
2017-01-25T00:31:04.438Z,73265
2017-01-25T00:31:13.107Z,73256
2017-01-25T00:31:21.788Z,73259
2017-01-25T00:31:30.456Z,73267
2017-01-25T00:31:39.128Z,73271
2017-01-25T00:31:47.806Z,73265
2017-01-25T00:31:56.458Z,73266
2017-01-25T00:32:05.146Z,73266
2017-01-25T00:32:14.180Z,73269
2017-01-25T00:32:22.852Z,73269
2017-01-25T00:32:31.525Z,73269
2017-01-25T00:32:40.212Z,73270
2017-01-25T00:32:48.882Z,73273
2017-01-25T00:32:57.529Z,73273
2017-01-25T00:33:06.214Z,73269
2017-01-25T00:33:14.870Z,73264
2017-01-25T00:33:23.537Z,73265
2017-01-25T00:33:32.195Z,73269
2017-01-25T00:33:40.901Z,73271
2017-01-25T00:33:49.576Z,73273
2017-01-25T00:33:58.248Z,73268
2017-01-25T00:34:06.944Z,73266
2017-01-25T00:34:15.630Z,73260
2017-01-25T00:34:24.673Z,73256
2017-01-25T00:34:33.347Z,73259
2017-01-25T00:34:42.009Z,73258
2017-01-25T00:34:50.684Z,73257
2017-01-25T00:34:59.342Z,73259
2017-01-25T00:35:08.025Z,73254
2017-01-25T00:35:16.712Z,73258
2017-01-25T00:35:25.374Z,73259
2017-01-25T00:35:34.048Z,73259
2017-01-25T00:35:42.742Z,73262
2017-01-25T00:35:51.412Z,73261
2017-01-25T00:36:00.104Z,73265
2017-01-25T00:36:08.787Z,73261
2017-01-25T00:36:17.453Z,73266
2017-01-25T00:36:26.112Z,73263
2017-01-25T00:36:34.774Z,73260
2017-01-25T00:36:43.479Z,73261
2017-01-25T00:36:52.159Z,73263
2017-01-25T00:37:00.855Z,73264
2017-01-25T00:37:09.532Z,73268
2017-01-25T00:37:18.202Z,73268
2017-01-25T00:37:26.875Z,73270
2017-01-25T00:37:35.526Z,73266
2017-01-25T00:37:44.208Z,73267
2017-01-25T00:37:52.895Z,73269
2017-01-25T00:38:01.923Z,73264
2017-01-25T00:38:10.607Z,73263
2017-01-25T00:38:19.280Z,73264
2017-01-25T00:38:27.971Z,73265
2017-01-25T00:38:36.644Z,73267
2017-01-25T00:38:45.306Z,73264
2017-01-25T00:38:53.975Z,73271
2017-01-25T00:39:02.643Z,73266
2017-01-25T00:39:11.320Z,73267
2017-01-25T00:39:19.984Z,73266
2017-01-25T00:39:28.657Z,73261
2017-01-25T00:39:37.326Z,73262
2017-01-25T00:39:46.011Z,73258
2017-01-25T00:39:54.689Z,73263
2017-01-25T00:40:03.360Z,73263
2017-01-25T00:40:12.036Z,73259
2017-01-25T00:40:20.708Z,73265
2017-01-25T00:40:29.364Z,73263
2017-01-25T00:40:38.021Z,73265
2017-01-25T00:40:46.673Z,73268
2017-01-25T00:40:55.318Z,73266
2017-01-25T00:41:03.989Z,73267
2017-01-25T00:41:13.033Z,73269
2017-01-25T00:41:21.702Z,73266
2017-01-25T00:41:30.379Z,73271
2017-01-25T00:41:39.060Z,73270
2017-01-25T00:41:47.728Z,73266
2017-01-25T00:41:56.414Z,73263
2017-01-25T00:42:05.087Z,73266
2017-01-25T00:42:13.757Z,73270
2017-01-25T00:42:22.424Z,73268
2017-01-25T00:42:31.084Z,73271
2017-01-25T00:42:39.745Z,73274
2017-01-25T00:42:48.401Z,73268
2017-01-25T00:42:57.060Z,73273
2017-01-25T00:43:05.730Z,73267
2017-01-25T00:43:14.395Z,73268
2017-01-25T00:43:23.074Z,73270
2017-01-25T00:43:31.738Z,73266
2017-01-25T00:43:40.439Z,73265
2017-01-25T00:43:49.114Z,73269
2017-01-25T00:43:57.781Z,73262
2017-01-25T00:44:06.446Z,73265
2017-01-25T00:44:15.120Z,73269
2017-01-25T00:44:23.775Z,73269
2017-01-25T00:44:32.454Z,73270
2017-01-25T00:44:41.105Z,73267
2017-01-25T00:44:49.762Z,73272
2017-01-25T00:44:58.448Z,73265
2017-01-25T00:45:07.102Z,73265
2017-01-25T00:45:15.750Z,73271
2017-01-25T00:45:24.410Z,73273
2017-01-25T00:45:33.102Z,73274
2017-01-25T00:45:41.794Z,73272
2017-01-25T00:45:50.464Z,73272
2017-01-25T00:45:59.138Z,73271
2017-01-25T00:46:07.814Z,73273
2017-01-25T00:46:16.477Z,73271
2017-01-25T00:46:25.142Z,73273
2017-01-25T00:46:33.813Z,73272
2017-01-25T00:46:42.493Z,73276
2017-01-25T00:46:51.193Z,73269
2017-01-25T00:46:59.837Z,73272
2017-01-25T00:47:08.515Z,73267
2017-01-25T00:47:17.193Z,73271
2017-01-25T00:47:25.861Z,73270
2017-01-25T00:47:34.537Z,73268
2017-01-25T00:47:43.203Z,73270
2017-01-25T00:47:51.899Z,73267
2017-01-25T00:48:00.571Z,73268
2017-01-25T00:48:09.232Z,73276
2017-01-25T00:48:17.884Z,73271
2017-01-25T00:48:26.567Z,73272
2017-01-25T00:48:35.230Z,73269
2017-01-25T00:48:43.933Z,73267
2017-01-25T00:48:52.584Z,73270
2017-01-25T00:49:01.250Z,73274
2017-01-25T00:49:09.913Z,73272
2017-01-25T00:49:18.605Z,73273
2017-01-25T00:49:27.265Z,73272
2017-01-25T00:49:35.921Z,73275
2017-01-25T00:49:44.578Z,73269
2017-01-25T00:49:53.264Z,73276
2017-01-25T00:50:01.944Z,73269
2017-01-25T00:50:10.623Z,73274
2017-01-25T00:50:19.265Z,73273
2017-01-25T00:50:27.935Z,73270
2017-01-25T00:50:36.629Z,73271
2017-01-25T00:50:45.320Z,73270
2017-01-25T00:50:53.980Z,73267
2017-01-25T00:51:02.655Z,73269
2017-01-25T00:51:11.322Z,73268
2017-01-25T00:51:19.992Z,73268
2017-01-25T00:51:28.664Z,73267
2017-01-25T00:51:37.348Z,73267
2017-01-25T00:51:46.033Z,73266
2017-01-25T00:51:54.692Z,73271
2017-01-25T00:52:03.360Z,73269
2017-01-25T00:52:12.026Z,73272
2017-01-25T00:52:20.700Z,73272
2017-01-25T00:52:29.363Z,73272
2017-01-25T00:52:38.042Z,73269
2017-01-25T00:52:46.696Z,73271
2017-01-25T00:52:55.388Z,73268
2017-01-25T00:53:04.057Z,73263
2017-01-25T00:53:12.722Z,73271
2017-01-25T00:53:21.385Z,73271
2017-01-25T00:53:30.039Z,73270
2017-01-25T00:53:38.695Z,73270
2017-01-25T00:53:47.375Z,73271
2017-01-25T00:53:56.032Z,73274
2017-01-25T00:54:04.719Z,73271
2017-01-25T00:54:13.394Z,73272
2017-01-25T00:54:22.077Z,73267
2017-01-25T00:54:30.733Z,73269
2017-01-25T00:54:39.413Z,73273
2017-01-25T00:54:48.075Z,73265
2017-01-25T00:54:56.762Z,73269
2017-01-25T00:55:05.812Z,73270
2017-01-25T00:55:14.476Z,73271
2017-01-25T00:55:23.154Z,73270
2017-01-25T00:55:31.824Z,73267
2017-01-25T00:55:40.491Z,73263
2017-01-25T00:55:49.172Z,73266
2017-01-25T00:55:57.846Z,73267
2017-01-25T00:56:06.515Z,73270
2017-01-25T00:56:15.178Z,73268
2017-01-25T00:56:23.840Z,73271
2017-01-25T00:56:32.519Z,73269
2017-01-25T00:56:41.208Z,73264
2017-01-25T00:56:49.873Z,73267
2017-01-25T00:56:58.528Z,73266
2017-01-25T00:57:07.191Z,73267
2017-01-25T00:57:15.869Z,73268
2017-01-25T00:57:24.559Z,73268
2017-01-25T00:57:33.241Z,73268
2017-01-25T00:57:41.893Z,73272
2017-01-25T00:57:50.555Z,73270
2017-01-25T00:57:59.226Z,73273
2017-01-25T00:58:07.909Z,73272
2017-01-25T00:58:16.573Z,73274
2017-01-25T00:58:25.259Z,73271
2017-01-25T00:58:33.932Z,73274
2017-01-25T00:58:42.617Z,73270
2017-01-25T00:58:51.291Z,73271
2017-01-25T00:58:59.942Z,73271
2017-01-25T00:59:08.607Z,73272
2017-01-25T00:59:17.298Z,73273
2017-01-25T00:59:25.954Z,73276
2017-01-25T00:59:35.016Z,73275
2017-01-25T00:59:43.678Z,73272
2017-01-25T00:59:52.366Z,73272
2017-01-25T01:00:01.036Z,73270
2017-01-25T01:00:09.721Z,73272
2017-01-25T01:00:18.387Z,73275
2017-01-25T01:00:27.052Z,73274
2017-01-25T01:00:35.736Z,73274
2017-01-25T01:00:44.408Z,73276
2017-01-25T01:00:53.095Z,73273
2017-01-25T01:01:01.785Z,73272
2017-01-25T01:01:10.484Z,73273
2017-01-25T01:01:19.139Z,73276
2017-01-25T01:01:27.812Z,73273
2017-01-25T01:01:36.487Z,73274
2017-01-25T01:01:45.155Z,73269
2017-01-25T01:01:53.834Z,73271
2017-01-25T01:02:02.492Z,73273
2017-01-25T01:02:11.160Z,73275
2017-01-25T01:02:20.188Z,73273
2017-01-25T01:02:29.246Z,73277
2017-01-25T01:02:37.930Z,73275
2017-01-25T01:02:46.608Z,73271
2017-01-25T01:02:55.328Z,73276
2017-01-25T01:03:04.003Z,73273
2017-01-25T01:03:12.679Z,73273
2017-01-25T01:03:21.344Z,73272
2017-01-25T01:03:30.015Z,73274
2017-01-25T01:03:38.704Z,73274
2017-01-25T01:03:47.366Z,73276
2017-01-25T01:03:56.043Z,73271
2017-01-25T01:04:04.758Z,73268
2017-01-25T01:04:13.412Z,73269
2017-01-25T01:04:22.442Z,73271
2017-01-25T01:04:31.092Z,73266
2017-01-25T01:04:39.746Z,73273
2017-01-25T01:04:48.415Z,73273
2017-01-25T01:04:57.092Z,73273
2017-01-25T01:05:05.742Z,73275
2017-01-25T01:05:14.451Z,73273
2017-01-25T01:05:23.135Z,73272
2017-01-25T01:05:31.800Z,73277
2017-01-25T01:05:40.445Z,73272
2017-01-25T01:05:49.116Z,73274
2017-01-25T01:05:57.795Z,73273
2017-01-25T01:06:06.482Z,73275
2017-01-25T01:06:15.156Z,73271
2017-01-25T01:06:23.824Z,73276
2017-01-25T01:06:32.485Z,73273
2017-01-25T01:06:41.146Z,73273
2017-01-25T01:06:49.825Z,73279
2017-01-25T01:06:58.519Z,73275
2017-01-25T01:07:07.183Z,73278
2017-01-25T01:07:15.857Z,73278
2017-01-25T01:07:24.531Z,73277
2017-01-25T01:07:33.181Z,73281
2017-01-25T01:07:41.838Z,73277
2017-01-25T01:07:50.528Z,73277
2017-01-25T01:07:59.202Z,73274
2017-01-25T01:08:07.874Z,73278
2017-01-25T01:08:16.530Z,73279
2017-01-25T01:08:25.198Z,73277
2017-01-25T01:08:33.864Z,73279
2017-01-25T01:08:42.541Z,73281
2017-01-25T01:08:51.206Z,73277
2017-01-25T01:08:59.864Z,73275
2017-01-25T01:09:08.553Z,73275
2017-01-25T01:09:17.240Z,73275
2017-01-25T01:09:25.914Z,73273
2017-01-25T01:09:34.563Z,73271
2017-01-25T01:09:43.226Z,73272
2017-01-25T01:09:51.880Z,73275
2017-01-25T01:10:00.567Z,73277
2017-01-25T01:10:09.232Z,73278
2017-01-25T01:10:17.909Z,73275
2017-01-25T01:10:26.574Z,73278
2017-01-25T01:10:35.236Z,73278
2017-01-25T01:10:43.916Z,73276
2017-01-25T01:10:52.582Z,73275
2017-01-25T01:11:01.268Z,73280
2017-01-25T01:11:09.953Z,73280
2017-01-25T01:11:18.621Z,73280
2017-01-25T01:11:27.313Z,73277
2017-01-25T01:11:36.008Z,73276
2017-01-25T01:11:44.683Z,73273
2017-01-25T01:11:53.367Z,73271
2017-01-25T01:12:02.040Z,73274
2017-01-25T01:12:10.725Z,73273
2017-01-25T01:12:19.413Z,73274
2017-01-25T01:12:28.094Z,73276
2017-01-25T01:12:36.793Z,73277
2017-01-25T01:12:45.458Z,73278
2017-01-25T01:12:54.128Z,73278
2017-01-25T01:13:02.811Z,73277
2017-01-25T01:13:11.492Z,73275
2017-01-25T01:13:20.178Z,73275
2017-01-25T01:13:28.876Z,73277
2017-01-25T01:13:37.547Z,73278
2017-01-25T01:13:46.215Z,73276
2017-01-25T01:13:54.893Z,73283
2017-01-25T01:14:03.584Z,73279
2017-01-25T01:14:12.263Z,73280
2017-01-25T01:14:20.946Z,73280
2017-01-25T01:14:29.608Z,73279
2017-01-25T01:14:38.321Z,73277
2017-01-25T01:14:46.973Z,73281
2017-01-25T01:14:55.644Z,73280
2017-01-25T01:15:04.318Z,73277
2017-01-25T01:15:12.987Z,73273
2017-01-25T01:15:21.659Z,73276
2017-01-25T01:15:30.343Z,73274
2017-01-25T01:15:39.022Z,73274
2017-01-25T01:15:47.727Z,73286
2017-01-25T01:15:56.394Z,73281
2017-01-25T01:16:05.050Z,73279
2017-01-25T01:16:13.718Z,73279
2017-01-25T01:16:22.387Z,73276
2017-01-25T01:16:31.050Z,73283
2017-01-25T01:16:39.713Z,73275
2017-01-25T01:16:48.381Z,73274
2017-01-25T01:16:57.056Z,73280
2017-01-25T01:17:05.722Z,73282
2017-01-25T01:17:14.389Z,73278
2017-01-25T01:17:23.066Z,73278
2017-01-25T01:17:31.742Z,73280
2017-01-25T01:17:40.428Z,73284
2017-01-25T01:17:49.097Z,73279
2017-01-25T01:17:57.771Z,73278
2017-01-25T01:18:06.430Z,73276
2017-01-25T01:18:15.128Z,73275
2017-01-25T01:18:23.798Z,73275
2017-01-25T01:18:32.462Z,73284
2017-01-25T01:18:41.130Z,73283
2017-01-25T01:18:49.799Z,73283
2017-01-25T01:18:58.462Z,73279
2017-01-25T01:19:07.127Z,73277
2017-01-25T01:19:15.785Z,73282
2017-01-25T01:19:24.463Z,73277
2017-01-25T01:19:33.161Z,73279
2017-01-25T01:19:42.199Z,73282
2017-01-25T01:19:50.876Z,73279
2017-01-25T01:19:59.554Z,73276
2017-01-25T01:20:08.220Z,73278
2017-01-25T01:20:16.882Z,73280
2017-01-25T01:20:25.541Z,73279
2017-01-25T01:20:34.219Z,73278
2017-01-25T01:20:42.910Z,73275
2017-01-25T01:20:51.608Z,73282
2017-01-25T01:21:00.278Z,73282
2017-01-25T01:21:08.947Z,73282
2017-01-25T01:21:17.641Z,73284
2017-01-25T01:21:26.287Z,73282
2017-01-25T01:21:34.970Z,73278
2017-01-25T01:21:43.671Z,73275
2017-01-25T01:21:52.359Z,73277
2017-01-25T01:22:01.038Z,73276
2017-01-25T01:22:09.707Z,73276
2017-01-25T01:22:18.389Z,73278
2017-01-25T01:22:27.053Z,73279
2017-01-25T01:22:35.698Z,73279
2017-01-25T01:22:44.360Z,73279
2017-01-25T01:22:53.037Z,73279
2017-01-25T01:23:01.712Z,73278
2017-01-25T01:23:10.391Z,73278
2017-01-25T01:23:19.077Z,73275
2017-01-25T01:23:27.742Z,73279
2017-01-25T01:23:36.411Z,73280
2017-01-25T01:23:45.093Z,73279
2017-01-25T01:23:53.767Z,73280
2017-01-25T01:24:02.428Z,73282
2017-01-25T01:24:11.123Z,73283
2017-01-25T01:24:19.806Z,73283
2017-01-25T01:24:28.469Z,73278
2017-01-25T01:24:37.147Z,73282
2017-01-25T01:24:45.828Z,73278
2017-01-25T01:24:54.503Z,73280
2017-01-25T01:25:03.182Z,73276
2017-01-25T01:25:11.834Z,73281
2017-01-25T01:25:20.505Z,73282
2017-01-25T01:25:29.169Z,73281
2017-01-25T01:25:37.857Z,73280
2017-01-25T01:25:46.562Z,73281
2017-01-25T01:25:55.232Z,73283
2017-01-25T01:26:03.916Z,73281
2017-01-25T01:26:12.600Z,73278
2017-01-25T01:26:21.267Z,73282
2017-01-25T01:26:29.946Z,73279
2017-01-25T01:26:38.664Z,73279
2017-01-25T01:26:47.331Z,73280
2017-01-25T01:26:56.003Z,73282
2017-01-25T01:27:04.672Z,73280
2017-01-25T01:27:13.349Z,73283
2017-01-25T01:27:22.039Z,73282
2017-01-25T01:27:30.720Z,73281
2017-01-25T01:27:39.396Z,73287
2017-01-25T01:27:48.083Z,73284
2017-01-25T01:27:56.749Z,73282
2017-01-25T01:28:05.449Z,73283
2017-01-25T01:28:14.112Z,73283
2017-01-25T01:28:22.783Z,73281
2017-01-25T01:28:31.459Z,73284
2017-01-25T01:28:40.128Z,73281
2017-01-25T01:28:48.810Z,73283
2017-01-25T01:28:57.501Z,73279
2017-01-25T01:29:06.196Z,73282
2017-01-25T01:29:14.845Z,73283
2017-01-25T01:29:23.552Z,73284
2017-01-25T01:29:32.223Z,73284
2017-01-25T01:29:40.897Z,73283
2017-01-25T01:29:49.573Z,73285
2017-01-25T01:29:58.251Z,73283
2017-01-25T01:30:06.925Z,73280
2017-01-25T01:30:15.599Z,73282
2017-01-25T01:30:24.276Z,73278
2017-01-25T01:30:32.938Z,73281
2017-01-25T01:30:41.631Z,73279
2017-01-25T01:30:50.295Z,73281
2017-01-25T01:30:58.963Z,73280
2017-01-25T01:31:07.637Z,73283
2017-01-25T01:31:16.315Z,73282
2017-01-25T01:31:25.000Z,73283
2017-01-25T01:31:33.658Z,73282
2017-01-25T01:31:42.337Z,73279
2017-01-25T01:31:51.010Z,73285
2017-01-25T01:31:59.700Z,73283
2017-01-25T01:32:08.370Z,73279
2017-01-25T01:32:17.054Z,73279
2017-01-25T01:32:25.773Z,73277
2017-01-25T01:32:34.427Z,73277
2017-01-25T01:32:43.086Z,73282
2017-01-25T01:32:51.784Z,73276
2017-01-25T01:33:00.450Z,73275
2017-01-25T01:33:09.116Z,73276
2017-01-25T01:33:17.794Z,73274
2017-01-25T01:33:26.469Z,73276
2017-01-25T01:33:35.147Z,73277
2017-01-25T01:33:43.815Z,73280
2017-01-25T01:33:52.486Z,73275
2017-01-25T01:34:01.134Z,73278
2017-01-25T01:34:09.804Z,73282
2017-01-25T01:34:18.482Z,73271
2017-01-25T01:34:27.170Z,73277
2017-01-25T01:34:35.844Z,73273
2017-01-25T01:34:44.567Z,73277
2017-01-25T01:34:53.251Z,73280
2017-01-25T01:35:01.922Z,73275
2017-01-25T01:35:10.589Z,73277
2017-01-25T01:35:19.252Z,73279
2017-01-25T01:35:27.915Z,73280
2017-01-25T01:35:36.586Z,73282
2017-01-25T01:35:45.264Z,73280
2017-01-25T01:35:53.948Z,73282
2017-01-25T01:36:02.624Z,73280
2017-01-25T01:36:11.315Z,73282
2017-01-25T01:36:19.959Z,73285
2017-01-25T01:36:28.643Z,73281
2017-01-25T01:36:37.331Z,73280
2017-01-25T01:36:45.990Z,73280
2017-01-25T01:36:54.664Z,73278
2017-01-25T01:37:03.327Z,73277
2017-01-25T01:37:12.025Z,73277
2017-01-25T01:37:20.689Z,73273
2017-01-25T01:37:29.378Z,73273
2017-01-25T01:37:38.070Z,73274
2017-01-25T01:37:46.747Z,73274
2017-01-25T01:37:55.417Z,73277
2017-01-25T01:38:04.103Z,73275
2017-01-25T01:38:12.762Z,73276
2017-01-25T01:38:21.444Z,73275
2017-01-25T01:38:30.126Z,73278
2017-01-25T01:38:38.776Z,73275
2017-01-25T01:38:47.445Z,73273
2017-01-25T01:38:56.107Z,73276
2017-01-25T01:39:04.766Z,73281
2017-01-25T01:39:13.436Z,73278
2017-01-25T01:39:22.090Z,73274
2017-01-25T01:39:30.785Z,73276
2017-01-25T01:39:39.462Z,73276
2017-01-25T01:39:48.126Z,73274
2017-01-25T01:39:56.819Z,73277
2017-01-25T01:40:05.501Z,73278
2017-01-25T01:40:14.178Z,73277
2017-01-25T01:40:22.843Z,73277
2017-01-25T01:40:31.512Z,73272
2017-01-25T01:40:40.176Z,73280
2017-01-25T01:40:48.840Z,73276
2017-01-25T01:40:57.509Z,73279
2017-01-25T01:41:06.192Z,73277
2017-01-25T01:41:14.875Z,73274
2017-01-25T01:41:23.527Z,73279
2017-01-25T01:41:32.236Z,73276
2017-01-25T01:41:40.909Z,73281
2017-01-25T01:41:49.569Z,73282
2017-01-25T01:41:58.238Z,73275
2017-01-25T01:42:06.924Z,73281
2017-01-25T01:42:15.607Z,73280
2017-01-25T01:42:24.289Z,73279
2017-01-25T01:42:32.968Z,73279
2017-01-25T01:42:41.647Z,73277
2017-01-25T01:42:50.322Z,73276
2017-01-25T01:42:58.993Z,73280
2017-01-25T01:43:07.661Z,73281
2017-01-25T01:43:16.316Z,73281
2017-01-25T01:43:24.964Z,73281
2017-01-25T01:43:33.654Z,73283
2017-01-25T01:43:42.329Z,73282
2017-01-25T01:43:50.989Z,73282
2017-01-25T01:43:59.649Z,73281
2017-01-25T01:44:08.323Z,73281
2017-01-25T01:44:17.000Z,73278
2017-01-25T01:44:25.648Z,73281
2017-01-25T01:44:34.347Z,73282
2017-01-25T01:44:43.006Z,73282
2017-01-25T01:44:51.673Z,73285
2017-01-25T01:45:00.415Z,73282
2017-01-25T01:45:09.076Z,73285
2017-01-25T01:45:17.758Z,73280
2017-01-25T01:45:26.425Z,73280
2017-01-25T01:45:35.102Z,73277
2017-01-25T01:45:43.763Z,73283
2017-01-25T01:45:52.432Z,73281
2017-01-25T01:46:01.112Z,73281
2017-01-25T01:46:09.778Z,73281
2017-01-25T01:46:18.449Z,73272
2017-01-25T01:46:27.128Z,73277
2017-01-25T01:46:35.782Z,73277
2017-01-25T01:46:44.488Z,73283
2017-01-25T01:46:53.170Z,73282
2017-01-25T01:47:01.855Z,73281
2017-01-25T01:47:10.530Z,73282
2017-01-25T01:47:19.194Z,73282
2017-01-25T01:47:27.880Z,73281
2017-01-25T01:47:36.546Z,73283
2017-01-25T01:47:45.234Z,73281
2017-01-25T01:47:53.891Z,73279
2017-01-25T01:48:02.577Z,73279
2017-01-25T01:48:11.263Z,73286
2017-01-25T01:48:19.924Z,73281
2017-01-25T01:48:28.593Z,73281
2017-01-25T01:48:37.297Z,73279
2017-01-25T01:48:45.959Z,73278
2017-01-25T01:48:54.636Z,73280
2017-01-25T01:49:03.314Z,73278
2017-01-25T01:49:11.986Z,73282
2017-01-25T01:49:20.655Z,73280
2017-01-25T01:49:29.304Z,73278
2017-01-25T01:49:37.972Z,73279
2017-01-25T01:49:46.636Z,73277
2017-01-25T01:49:55.325Z,73283
2017-01-25T01:50:03.994Z,73282
2017-01-25T01:50:12.686Z,73278
2017-01-25T01:50:21.366Z,73285
2017-01-25T01:50:30.028Z,73284
2017-01-25T01:50:38.687Z,73282
2017-01-25T01:50:47.331Z,73283
2017-01-25T01:50:55.989Z,73285
2017-01-25T01:51:04.656Z,73284
2017-01-25T01:51:13.362Z,73286
2017-01-25T01:51:22.018Z,73284
2017-01-25T01:51:30.696Z,73280
2017-01-25T01:51:39.375Z,73283
2017-01-25T01:51:48.029Z,73281